Lowpoint, Illinois
Current Conditions -  °F | °C
As of 5:35 AM on Friday 31 Oct 2014 (Local Time) from KC75 Reporting Station
Overcast Overcast  
Wind Chill: 32°   Ceiling: 4100
Heat Index: 41°   Visibility: 10mi
Dew Point: 29°   Wind: 20mph
Humidity: 61%   Direction: 340°NNW
Pressure: 30.13"   Gusts: 31mph
Location:  40.87°N, 89.35°W
Report Text: KC75 311035Z AUTO 34017G27KT 10SM BKN041 BKN049 OVC065 05/M02 A3013 RMK AO2 T00511019
Loading
Personal Weather Stations






























Interactive Weather Map
Tropical Storm Tracking
New forecast layout! Learn more

10-Day Weather Forecast

Advertisements
Track Severe Weather on mobile